Terminal Aerodrome Forecast
Issued by NWS Melbourne, FL

Home | Current Version | Previous Version | Text Only | Print | Product List | Glossary On
Versions: 1 2 3 4 5 6 7 8 9 10 11 12 13 14
000
FTUS42 KMLB 261700
TAFDAB
TAF
KDAB 261720Z 2618/2718 05007KT P6SM OVC050
     FM270000 03003KT P6SM BKN035
      TEMPO 2709/2713 5SM BR BKN010
     FM271500 06006KT P6SM BKN030=

USA.gov is the U.S. government's official web portal to all federal, state and local government web resources and services.